Cold Bay, AK

3:23 AM AKST on December 08, 2016 (GMT -0900)
Cold Bay | | Change Station

Elev 102 ft 55.22 °N, 162.73 °W | Updated 30 minutes ago

Clear
Clear
18 °F
Feels Like 7 °F
N
9
Wind Variable Wind from North

Today
High -- | Low -- °F
--% Chance of Precip.
Yesterday
High -- | Low -- °F
Precip. -- in
Pressure 30.14 in
Visibility 10.0 miles
Clouds Few 3800 ft
Windchill 7 °F
Dew Point 15 °F
Humidity 88%
Rainfall 0.00 in
Snow Depth Not available.
10:04 AM 5:21 PM
Waxing Gibbous, 63% visible
METAR PACD 081153Z 36008KT 10SM FEW038 M08/M09 A3013 RMK AO2 SLP205 60000 70006 I1000 I6000 T10781094 11039 21083 58002
Pressure 30.14 in
Visibility 10.0 miles
Clouds Few 3800 ft
Windchill 7 °F
Dew Point 15 °F
Humidity 88%
Rainfall 0.00 in
Snow Depth Not available.
10:04 AM 5:21 PM
Waxing Gibbous, 63% visible
METAR PACD 081153Z 36008KT 10SM FEW038 M08/M09 A3013 RMK AO2 SLP205 60000 70006 I1000 I6000 T10781094 11039 21083 58002

10-Day Weather Forecast

Almanac

Astronomy

Dec. 08, 2016 Rise Set
Actual Time
Civil Twilight
Nautical Twilight
Astronomical Twilight
Moon
Length of Visible Light
Length of Day
Tomorrow will be .
, % of the Moon is Illuminated

Today's Extremes

State Highs State Lows

Community

WunderPhotos

Upload Photos

1,956,267 photos uploaded!

WunderBlog® & News

Nearby

Air Quality

  Air Quality AQ Index Pollutant
Not available.

Snow Depth

Station Depth Elevation

Earthquake Activity

City Distance Mag. Time & Date
Minimum magnitude displayed is 2.5.

Coastal Water Temperatures

Place Temperature

Stations

Nearby Weather Stations

Station Location Temp. Windchill Dew Point Humidity Wind Precip. Elev Updated Type
                   

Watches & Warnings

There are currently no watches in effect.